sensor_id;sensor_type;location;lat;lon;timestamp;temperature;humidity
4487;DHT22;2256;48.740;9.106;2023-12-14T00:02:14;6.00;99.90
4487;DHT22;2256;48.740;9.106;2023-12-14T00:04:40;6.00;99.90
4487;DHT22;2256;48.740;9.106;2023-12-14T00:07:09;6.00;99.90
4487;DHT22;2256;48.740;9.106;2023-12-14T00:09:36;6.10;99.90
4487;DHT22;2256;48.740;9.106;2023-12-14T00:12:03;6.00;99.90
4487;DHT22;2256;48.740;9.106;2023-12-14T00:14:30;5.90;99.90
4487;DHT22;2256;48.740;9.106;2023-12-14T00:16:56;5.90;99.90
4487;DHT22;2256;48.740;9.106;2023-12-14T00:19:24;5.90;99.90
4487;DHT22;2256;48.740;9.106;2023-12-14T00:21:51;6.00;99.90
4487;DHT22;2256;48.740;9.106;2023-12-14T00:24:19;6.00;99.90
4487;DHT22;2256;48.740;9.106;2023-12-14T00:26:46;5.90;99.90
4487;DHT22;2256;48.740;9.106;2023-12-14T00:29:13;6.00;99.90
4487;DHT22;2256;48.740;9.106;2023-12-14T00:31:39;6.00;99.90
4487;DHT22;2256;48.740;9.106;2023-12-14T00:34:06;6.00;99.90
4487;DHT22;2256;48.740;9.106;2023-12-14T00:36:33;6.10;99.90
4487;DHT22;2256;48.740;9.106;2023-12-14T00:39:00;6.00;99.90
4487;DHT22;2256;48.740;9.106;2023-12-14T00:41:28;6.00;99.90
4487;DHT22;2256;48.740;9.106;2023-12-14T00:43:54;6.00;99.90
4487;DHT22;2256;48.740;9.106;2023-12-14T00:46:21;6.00;99.90
4487;DHT22;2256;48.740;9.106;2023-12-14T00:48:48;6.00;99.90
4487;DHT22;2256;48.740;9.106;2023-12-14T00:51:15;5.90;99.90
4487;DHT22;2256;48.740;9.106;2023-12-14T00:53:41;5.90;99.90
4487;DHT22;2256;48.740;9.106;2023-12-14T00:56:08;5.80;99.90
4487;DHT22;2256;48.740;9.106;2023-12-14T00:58:37;5.90;99.90
4487;DHT22;2256;48.740;9.106;2023-12-14T01:01:04;6.00;99.90
4487;DHT22;2256;48.740;9.106;2023-12-14T01:03:31;5.80;99.90
4487;DHT22;2256;48.740;9.106;2023-12-14T01:05:58;5.80;99.90
4487;DHT22;2256;48.740;9.106;2023-12-14T01:08:25;5.80;99.90
4487;DHT22;2256;48.740;9.106;2023-12-14T01:10:51;5.90;99.90
4487;DHT22;2256;48.740;9.106;2023-12-14T01:13:18;6.00;99.90
4487;DHT22;2256;48.740;9.106;2023-12-14T01:15:46;6.00;99.90
4487;DHT22;2256;48.740;9.106;2023-12-14T01:18:13;6.00;99.90
4487;DHT22;2256;48.740;9.106;2023-12-14T01:20:40;6.00;99.90
4487;DHT22;2256;48.740;9.106;2023-12-14T01:23:07;5.90;99.90
4487;DHT22;2256;48.740;9.106;2023-12-14T01:25:35;5.90;99.90
4487;DHT22;2256;48.740;9.106;2023-12-14T01:28:02;6.10;99.90
4487;DHT22;2256;48.740;9.106;2023-12-14T01:30:28;6.00;99.90
4487;DHT22;2256;48.740;9.106;2023-12-14T01:32:57;6.00;99.90
4487;DHT22;2256;48.740;9.106;2023-12-14T01:35:23;5.90;99.90
4487;DHT22;2256;48.740;9.106;2023-12-14T01:37:50;5.90;99.90
4487;DHT22;2256;48.740;9.106;2023-12-14T01:40:19;5.90;99.90
4487;DHT22;2256;48.740;9.106;2023-12-14T01:42:46;5.90;99.90
4487;DHT22;2256;48.740;9.106;2023-12-14T01:45:13;5.80;99.90
4487;DHT22;2256;48.740;9.106;2023-12-14T01:47:41;5.90;99.90
4487;DHT22;2256;48.740;9.106;2023-12-14T01:50:09;5.80;99.90
4487;DHT22;2256;48.740;9.106;2023-12-14T01:52:36;5.90;99.90
4487;DHT22;2256;48.740;9.106;2023-12-14T01:55:03;5.90;99.90
4487;DHT22;2256;48.740;9.106;2023-12-14T01:57:30;5.90;99.90
4487;DHT22;2256;48.740;9.106;2023-12-14T01:59:57;6.00;99.90
4487;DHT22;2256;48.740;9.106;2023-12-14T02:02:24;5.80;99.90
4487;DHT22;2256;48.740;9.106;2023-12-14T02:04:51;5.80;99.90
4487;DHT22;2256;48.740;9.106;2023-12-14T02:07:19;5.80;99.90
4487;DHT22;2256;48.740;9.106;2023-12-14T02:09:46;5.70;99.90
4487;DHT22;2256;48.740;9.106;2023-12-14T02:12:12;5.80;99.90
4487;DHT22;2256;48.740;9.106;2023-12-14T02:14:39;5.80;99.90
4487;DHT22;2256;48.740;9.106;2023-12-14T02:17:06;5.70;99.90
4487;DHT22;2256;48.740;9.106;2023-12-14T02:19:33;5.80;99.90
4487;DHT22;2256;48.740;9.106;2023-12-14T02:21:59;5.80;99.90
4487;DHT22;2256;48.740;9.106;2023-12-14T02:24:27;5.70;99.90
4487;DHT22;2256;48.740;9.106;2023-12-14T02:26:54;5.70;99.90
4487;DHT22;2256;48.740;9.106;2023-12-14T02:29:21;5.70;99.90
4487;DHT22;2256;48.740;9.106;2023-12-14T02:31:48;5.80;99.90
4487;DHT22;2256;48.740;9.106;2023-12-14T02:34:14;5.80;99.90
4487;DHT22;2256;48.740;9.106;2023-12-14T02:36:41;5.70;99.90
4487;DHT22;2256;48.740;9.106;2023-12-14T02:39:08;5.80;99.90
4487;DHT22;2256;48.740;9.106;2023-12-14T02:41:36;5.90;99.90
4487;DHT22;2256;48.740;9.106;2023-12-14T02:44:03;5.90;99.90
4487;DHT22;2256;48.740;9.106;2023-12-14T02:46:30;5.90;99.90
4487;DHT22;2256;48.740;9.106;2023-12-14T02:48:57;5.80;99.90
4487;DHT22;2256;48.740;9.106;2023-12-14T02:51:23;5.90;99.90
4487;DHT22;2256;48.740;9.106;2023-12-14T02:53:50;5.90;99.90
4487;DHT22;2256;48.740;9.106;2023-12-14T02:56:17;5.90;99.90
4487;DHT22;2256;48.740;9.106;2023-12-14T02:58:45;5.80;99.90
4487;DHT22;2256;48.740;9.106;2023-12-14T03:01:18;5.80;99.90
4487;DHT22;2256;48.740;9.106;2023-12-14T03:03:45;5.90;99.90
4487;DHT22;2256;48.740;9.106;2023-12-14T03:06:12;5.90;99.90
4487;DHT22;2256;48.740;9.106;2023-12-14T03:08:39;5.90;99.90
4487;DHT22;2256;48.740;9.106;2023-12-14T03:11:06;5.90;99.90
4487;DHT22;2256;48.740;9.106;2023-12-14T03:13:33;5.90;99.90
4487;DHT22;2256;48.740;9.106;2023-12-14T03:16:01;5.90;99.90
4487;DHT22;2256;48.740;9.106;2023-12-14T03:18:28;5.90;99.90
4487;DHT22;2256;48.740;9.106;2023-12-14T03:20:54;5.90;99.90
4487;DHT22;2256;48.740;9.106;2023-12-14T03:23:21;6.00;99.90
4487;DHT22;2256;48.740;9.106;2023-12-14T03:25:48;5.90;99.90
4487;DHT22;2256;48.740;9.106;2023-12-14T03:28:14;6.00;99.90
4487;DHT22;2256;48.740;9.106;2023-12-14T03:30:41;6.00;99.90
4487;DHT22;2256;48.740;9.106;2023-12-14T03:33:09;6.10;99.90
4487;DHT22;2256;48.740;9.106;2023-12-14T03:35:36;6.10;99.90
4487;DHT22;2256;48.740;9.106;2023-12-14T03:38:04;6.10;99.90
4487;DHT22;2256;48.740;9.106;2023-12-14T03:40:31;6.10;99.90
4487;DHT22;2256;48.740;9.106;2023-12-14T03:42:58;6.20;99.90
4487;DHT22;2256;48.740;9.106;2023-12-14T03:45:24;6.20;99.90
4487;DHT22;2256;48.740;9.106;2023-12-14T03:47:51;6.20;99.90
4487;DHT22;2256;48.740;9.106;2023-12-14T03:50:20;6.30;99.90
4487;DHT22;2256;48.740;9.106;2023-12-14T03:52:46;6.30;99.90
4487;DHT22;2256;48.740;9.106;2023-12-14T03:55:13;6.30;99.90
4487;DHT22;2256;48.740;9.106;2023-12-14T03:57:41;6.20;99.90
4487;DHT22;2256;48.740;9.106;2023-12-14T04:00:10;6.30;99.90
4487;DHT22;2256;48.740;9.106;2023-12-14T04:02:38;6.20;99.90
4487;DHT22;2256;48.740;9.106;2023-12-14T04:05:06;6.10;99.90
4487;DHT22;2256;48.740;9.106;2023-12-14T04:07:35;6.20;99.90
4487;DHT22;2256;48.740;9.106;2023-12-14T04:10:02;6.10;99.90
4487;DHT22;2256;48.740;9.106;2023-12-14T04:12:28;6.10;99.90
4487;DHT22;2256;48.740;9.106;2023-12-14T04:14:55;6.20;99.90
4487;DHT22;2256;48.740;9.106;2023-12-14T04:17:22;6.20;99.90
4487;DHT22;2256;48.740;9.106;2023-12-14T04:19:50;6.30;99.90
4487;DHT22;2256;48.740;9.106;2023-12-14T04:22:16;6.30;99.90
4487;DHT22;2256;48.740;9.106;2023-12-14T04:24:45;6.30;99.90
4487;DHT22;2256;48.740;9.106;2023-12-14T04:27:12;6.30;99.90
4487;DHT22;2256;48.740;9.106;2023-12-14T04:29:38;6.30;99.90
4487;DHT22;2256;48.740;9.106;2023-12-14T04:32:06;6.40;99.90
4487;DHT22;2256;48.740;9.106;2023-12-14T04:34:33;6.30;99.90
4487;DHT22;2256;48.740;9.106;2023-12-14T04:36:59;6.30;99.90
4487;DHT22;2256;48.740;9.106;2023-12-14T04:39:26;6.40;99.90
4487;DHT22;2256;48.740;9.106;2023-12-14T04:41:55;6.40;99.90
4487;DHT22;2256;48.740;9.106;2023-12-14T04:44:22;6.30;99.90
4487;DHT22;2256;48.740;9.106;2023-12-14T04:46:48;6.30;99.90
4487;DHT22;2256;48.740;9.106;2023-12-14T04:49:16;6.40;99.90
4487;DHT22;2256;48.740;9.106;2023-12-14T04:51:43;6.40;99.90
4487;DHT22;2256;48.740;9.106;2023-12-14T04:54:09;6.40;99.90
4487;DHT22;2256;48.740;9.106;2023-12-14T04:56:35;6.40;99.90
4487;DHT22;2256;48.740;9.106;2023-12-14T04:59:03;6.40;99.90
4487;DHT22;2256;48.740;9.106;2023-12-14T05:01:30;6.40;99.90
4487;DHT22;2256;48.740;9.106;2023-12-14T05:03:57;6.40;99.90
4487;DHT22;2256;48.740;9.106;2023-12-14T05:06:23;6.40;99.90
4487;DHT22;2256;48.740;9.106;2023-12-14T05:08:50;6.40;99.90
4487;DHT22;2256;48.740;9.106;2023-12-14T05:11:17;6.50;99.90
4487;DHT22;2256;48.740;9.106;2023-12-14T05:13:44;6.50;99.90
4487;DHT22;2256;48.740;9.106;2023-12-14T05:16:14;6.50;99.90
4487;DHT22;2256;48.740;9.106;2023-12-14T05:18:41;6.50;99.90
4487;DHT22;2256;48.740;9.106;2023-12-14T05:21:07;6.50;99.90
4487;DHT22;2256;48.740;9.106;2023-12-14T05:23:33;6.50;99.90
4487;DHT22;2256;48.740;9.106;2023-12-14T05:26:00;6.40;99.90
4487;DHT22;2256;48.740;9.106;2023-12-14T05:28:27;6.40;99.90
4487;DHT22;2256;48.740;9.106;2023-12-14T05:30:54;6.40;99.90
4487;DHT22;2256;48.740;9.106;2023-12-14T05:33:22;6.40;99.90
4487;DHT22;2256;48.740;9.106;2023-12-14T05:35:49;6.50;99.90
4487;DHT22;2256;48.740;9.106;2023-12-14T05:38:15;6.40;99.90
4487;DHT22;2256;48.740;9.106;2023-12-14T05:40:42;6.40;99.90
4487;DHT22;2256;48.740;9.106;2023-12-14T05:43:10;6.50;99.90
4487;DHT22;2256;48.740;9.106;2023-12-14T05:45:37;6.40;99.90
4487;DHT22;2256;48.740;9.106;2023-12-14T05:48:04;6.50;99.90
4487;DHT22;2256;48.740;9.106;2023-12-14T05:50:33;6.50;99.90
4487;DHT22;2256;48.740;9.106;2023-12-14T05:52:59;6.50;99.90
4487;DHT22;2256;48.740;9.106;2023-12-14T05:55:26;6.50;99.90
4487;DHT22;2256;48.740;9.106;2023-12-14T05:57:53;6.50;99.90
4487;DHT22;2256;48.740;9.106;2023-12-14T06:00:20;6.50;99.90
4487;DHT22;2256;48.740;9.106;2023-12-14T06:02:47;6.50;99.90
4487;DHT22;2256;48.740;9.106;2023-12-14T06:05:14;6.50;99.90
4487;DHT22;2256;48.740;9.106;2023-12-14T06:07:42;6.50;99.90
4487;DHT22;2256;48.740;9.106;2023-12-14T06:10:10;6.60;99.90
4487;DHT22;2256;48.740;9.106;2023-12-14T06:12:36;6.60;99.90
4487;DHT22;2256;48.740;9.106;2023-12-14T06:15:04;6.60;99.90
4487;DHT22;2256;48.740;9.106;2023-12-14T06:17:31;6.60;99.90
4487;DHT22;2256;48.740;9.106;2023-12-14T06:19:59;6.60;99.90
4487;DHT22;2256;48.740;9.106;2023-12-14T06:22:26;6.60;99.90
4487;DHT22;2256;48.740;9.106;2023-12-14T06:24:54;6.50;99.90
4487;DHT22;2256;48.740;9.106;2023-12-14T06:27:21;6.50;99.90
4487;DHT22;2256;48.740;9.106;2023-12-14T06:29:51;6.60;99.90
4487;DHT22;2256;48.740;9.106;2023-12-14T06:32:18;6.70;99.90
4487;DHT22;2256;48.740;9.106;2023-12-14T06:34:45;6.60;99.90
4487;DHT22;2256;48.740;9.106;2023-12-14T06:37:12;6.70;99.90
4487;DHT22;2256;48.740;9.106;2023-12-14T06:39:40;6.70;99.90
4487;DHT22;2256;48.740;9.106;2023-12-14T06:42:08;6.70;99.90
4487;DHT22;2256;48.740;9.106;2023-12-14T06:44:35;6.60;99.90
4487;DHT22;2256;48.740;9.106;2023-12-14T06:47:02;6.60;99.90
4487;DHT22;2256;48.740;9.106;2023-12-14T06:49:29;6.60;99.90
4487;DHT22;2256;48.740;9.106;2023-12-14T06:51:56;6.50;99.90
4487;DHT22;2256;48.740;9.106;2023-12-14T06:54:23;6.60;99.90
4487;DHT22;2256;48.740;9.106;2023-12-14T06:56:50;6.50;99.90
4487;DHT22;2256;48.740;9.106;2023-12-14T06:59:18;6.50;99.90
4487;DHT22;2256;48.740;9.106;2023-12-14T07:01:45;6.50;99.90
4487;DHT22;2256;48.740;9.106;2023-12-14T07:04:11;6.40;99.90
4487;DHT22;2256;48.740;9.106;2023-12-14T07:06:39;6.40;99.90
4487;DHT22;2256;48.740;9.106;2023-12-14T07:09:06;6.40;99.90
4487;DHT22;2256;48.740;9.106;2023-12-14T07:11:32;6.50;99.90
4487;DHT22;2256;48.740;9.106;2023-12-14T07:13:59;6.60;99.90
4487;DHT22;2256;48.740;9.106;2023-12-14T07:16:27;6.60;99.90
4487;DHT22;2256;48.740;9.106;2023-12-14T07:18:54;6.60;99.90
4487;DHT22;2256;48.740;9.106;2023-12-14T07:21:20;6.60;99.90
4487;DHT22;2256;48.740;9.106;2023-12-14T07:23:48;6.50;99.90
4487;DHT22;2256;48.740;9.106;2023-12-14T07:26:15;6.50;99.90
4487;DHT22;2256;48.740;9.106;2023-12-14T07:28:42;6.50;99.90
4487;DHT22;2256;48.740;9.106;2023-12-14T07:31:09;6.50;99.90
4487;DHT22;2256;48.740;9.106;2023-12-14T07:33:38;6.50;99.90
4487;DHT22;2256;48.740;9.106;2023-12-14T07:36:05;6.60;99.90
4487;DHT22;2256;48.740;9.106;2023-12-14T07:38:32;6.50;99.90
4487;DHT22;2256;48.740;9.106;2023-12-14T07:40:59;6.60;99.90
4487;DHT22;2256;48.740;9.106;2023-12-14T07:43:26;6.60;99.90
4487;DHT22;2256;48.740;9.106;2023-12-14T07:45:53;6.60;99.90
4487;DHT22;2256;48.740;9.106;2023-12-14T07:48:19;6.50;99.90
4487;DHT22;2256;48.740;9.106;2023-12-14T07:50:48;6.50;99.90
4487;DHT22;2256;48.740;9.106;2023-12-14T07:53:14;6.40;99.90
4487;DHT22;2256;48.740;9.106;2023-12-14T07:55:41;6.40;99.90
4487;DHT22;2256;48.740;9.106;2023-12-14T07:58:08;6.50;99.90
4487;DHT22;2256;48.740;9.106;2023-12-14T08:00:35;6.50;99.90
4487;DHT22;2256;48.740;9.106;2023-12-14T08:03:01;6.40;99.90
4487;DHT22;2256;48.740;9.106;2023-12-14T08:05:28;6.40;99.90
4487;DHT22;2256;48.740;9.106;2023-12-14T08:07:56;6.50;99.90
4487;DHT22;2256;48.740;9.106;2023-12-14T08:10:23;6.50;99.90
4487;DHT22;2256;48.740;9.106;2023-12-14T08:12:50;6.60;99.90
4487;DHT22;2256;48.740;9.106;2023-12-14T08:15:17;6.50;99.90
4487;DHT22;2256;48.740;9.106;2023-12-14T08:17:44;6.60;99.90
4487;DHT22;2256;48.740;9.106;2023-12-14T08:20:11;6.60;99.90
4487;DHT22;2256;48.740;9.106;2023-12-14T08:22:38;6.70;99.90
4487;DHT22;2256;48.740;9.106;2023-12-14T08:25:12;6.80;99.90
4487;DHT22;2256;48.740;9.106;2023-12-14T08:27:40;6.90;99.90
4487;DHT22;2256;48.740;9.106;2023-12-14T08:30:08;7.00;99.90
4487;DHT22;2256;48.740;9.106;2023-12-14T08:32:35;7.00;99.90
4487;DHT22;2256;48.740;9.106;2023-12-14T08:35:02;7.10;99.90
4487;DHT22;2256;48.740;9.106;2023-12-14T08:37:29;7.20;99.90
4487;DHT22;2256;48.740;9.106;2023-12-14T08:39:56;7.30;99.90
4487;DHT22;2256;48.740;9.106;2023-12-14T08:42:24;7.30;99.90
4487;DHT22;2256;48.740;9.106;2023-12-14T08:44:51;7.30;99.90
4487;DHT22;2256;48.740;9.106;2023-12-14T08:47:19;7.50;99.90
4487;DHT22;2256;48.740;9.106;2023-12-14T08:49:46;7.80;99.90
4487;DHT22;2256;48.740;9.106;2023-12-14T08:52:12;8.20;99.90
4487;DHT22;2256;48.740;9.106;2023-12-14T08:54:40;8.40;99.90
4487;DHT22;2256;48.740;9.106;2023-12-14T08:57:09;8.30;99.90
4487;DHT22;2256;48.740;9.106;2023-12-14T08:59:37;8.20;99.90
4487;DHT22;2256;48.740;9.106;2023-12-14T09:02:04;8.10;99.90
4487;DHT22;2256;48.740;9.106;2023-12-14T09:04:31;7.80;99.90
4487;DHT22;2256;48.740;9.106;2023-12-14T09:06:57;7.70;99.90
4487;DHT22;2256;48.740;9.106;2023-12-14T09:09:24;7.60;99.90
4487;DHT22;2256;48.740;9.106;2023-12-14T09:11:51;7.60;99.90
4487;DHT22;2256;48.740;9.106;2023-12-14T09:14:18;7.60;99.90
4487;DHT22;2256;48.740;9.106;2023-12-14T09:16:46;7.60;99.90
4487;DHT22;2256;48.740;9.106;2023-12-14T09:19:13;7.60;99.90
4487;DHT22;2256;48.740;9.106;2023-12-14T09:21:40;7.60;99.90
4487;DHT22;2256;48.740;9.106;2023-12-14T09:24:06;7.70;99.90
4487;DHT22;2256;48.740;9.106;2023-12-14T09:26:35;7.80;99.90
4487;DHT22;2256;48.740;9.106;2023-12-14T09:29:02;7.80;99.90
4487;DHT22;2256;48.740;9.106;2023-12-14T09:31:28;7.90;99.90
4487;DHT22;2256;48.740;9.106;2023-12-14T09:33:57;8.00;99.90
4487;DHT22;2256;48.740;9.106;2023-12-14T09:36:23;7.90;99.90
4487;DHT22;2256;48.740;9.106;2023-12-14T09:38:50;8.00;99.90
4487;DHT22;2256;48.740;9.106;2023-12-14T09:41:17;8.00;99.90
4487;DHT22;2256;48.740;9.106;2023-12-14T09:43:45;8.10;99.90
4487;DHT22;2256;48.740;9.106;2023-12-14T09:46:13;8.10;99.90
4487;DHT22;2256;48.740;9.106;2023-12-14T09:48:41;8.20;99.90
4487;DHT22;2256;48.740;9.106;2023-12-14T09:51:10;8.40;99.90
4487;DHT22;2256;48.740;9.106;2023-12-14T09:53:38;8.40;99.90
4487;DHT22;2256;48.740;9.106;2023-12-14T09:56:06;8.50;99.90
4487;DHT22;2256;48.740;9.106;2023-12-14T09:58:33;8.60;99.90
4487;DHT22;2256;48.740;9.106;2023-12-14T10:01:00;8.70;99.90
4487;DHT22;2256;48.740;9.106;2023-12-14T10:03:30;8.70;99.90
4487;DHT22;2256;48.740;9.106;2023-12-14T10:05:59;8.80;99.90
4487;DHT22;2256;48.740;9.106;2023-12-14T10:08:28;8.90;99.90
4487;DHT22;2256;48.740;9.106;2023-12-14T10:10:55;8.80;99.90
4487;DHT22;2256;48.740;9.106;2023-12-14T10:13:36;8.60;99.90
4487;DHT22;2256;48.740;9.106;2023-12-14T10:16:03;8.70;99.90
4487;DHT22;2256;48.740;9.106;2023-12-14T10:18:31;8.60;99.90
4487;DHT22;2256;48.740;9.106;2023-12-14T10:20:59;8.50;99.90
4487;DHT22;2256;48.740;9.106;2023-12-14T10:23:28;8.50;99.90
4487;DHT22;2256;48.740;9.106;2023-12-14T10:25:55;8.40;99.90
4487;DHT22;2256;48.740;9.106;2023-12-14T10:28:22;8.20;99.90
4487;DHT22;2256;48.740;9.106;2023-12-14T10:30:50;8.20;99.90
4487;DHT22;2256;48.740;9.106;2023-12-14T10:33:16;8.20;99.90
4487;DHT22;2256;48.740;9.106;2023-12-14T10:35:43;8.30;99.90
4487;DHT22;2256;48.740;9.106;2023-12-14T10:38:12;8.30;99.90
4487;DHT22;2256;48.740;9.106;2023-12-14T10:40:42;8.50;99.90
4487;DHT22;2256;48.740;9.106;2023-12-14T10:43:10;8.70;99.90
4487;DHT22;2256;48.740;9.106;2023-12-14T10:45:38;9.00;99.90
4487;DHT22;2256;48.740;9.106;2023-12-14T10:48:06;9.10;99.90
4487;DHT22;2256;48.740;9.106;2023-12-14T10:50:34;9.20;99.90
4487;DHT22;2256;48.740;9.106;2023-12-14T10:53:02;9.30;99.90
4487;DHT22;2256;48.740;9.106;2023-12-14T10:55:36;9.30;99.90
4487;DHT22;2256;48.740;9.106;2023-12-14T10:58:04;9.40;99.90
4487;DHT22;2256;48.740;9.106;2023-12-14T11:00:32;9.20;99.90
4487;DHT22;2256;48.740;9.106;2023-12-14T11:02:59;9.20;99.90
4487;DHT22;2256;48.740;9.106;2023-12-14T11:05:27;9.10;99.90
4487;DHT22;2256;48.740;9.106;2023-12-14T11:07:56;9.10;99.90
4487;DHT22;2256;48.740;9.106;2023-12-14T11:10:36;9.10;99.90
4487;DHT22;2256;48.740;9.106;2023-12-14T11:13:07;9.30;99.90
4487;DHT22;2256;48.740;9.106;2023-12-14T11:15:36;9.40;99.90
4487;DHT22;2256;48.740;9.106;2023-12-14T11:18:23;9.40;99.90
4487;DHT22;2256;48.740;9.106;2023-12-14T11:20:52;9.60;99.90
4487;DHT22;2256;48.740;9.106;2023-12-14T11:23:28;9.80;99.90
4487;DHT22;2256;48.740;9.106;2023-12-14T11:25:58;9.90;99.90
4487;DHT22;2256;48.740;9.106;2023-12-14T11:28:30;10.00;99.90
4487;DHT22;2256;48.740;9.106;2023-12-14T11:30:57;10.00;99.90
4487;DHT22;2256;48.740;9.106;2023-12-14T11:33:25;10.00;99.90
4487;DHT22;2256;48.740;9.106;2023-12-14T11:35:54;10.10;99.90
4487;DHT22;2256;48.740;9.106;2023-12-14T11:38:21;10.00;99.90
4487;DHT22;2256;48.740;9.106;2023-12-14T11:40:49;10.00;99.90
4487;DHT22;2256;48.740;9.106;2023-12-14T11:43:16;9.90;99.90
4487;DHT22;2256;48.740;9.106;2023-12-14T11:45:47;9.70;99.90
4487;DHT22;2256;48.740;9.106;2023-12-14T11:48:14;9.40;99.90
4487;DHT22;2256;48.740;9.106;2023-12-14T11:50:42;9.20;99.90
4487;DHT22;2256;48.740;9.106;2023-12-14T11:53:10;9.00;99.90
4487;DHT22;2256;48.740;9.106;2023-12-14T11:55:38;8.80;99.90
4487;DHT22;2256;48.740;9.106;2023-12-14T11:58:06;8.60;99.90
4487;DHT22;2256;48.740;9.106;2023-12-14T12:00:34;8.60;99.90
4487;DHT22;2256;48.740;9.106;2023-12-14T12:03:12;8.50;99.90
4487;DHT22;2256;48.740;9.106;2023-12-14T12:05:40;8.40;99.90
4487;DHT22;2256;48.740;9.106;2023-12-14T12:08:08;8.30;99.90
4487;DHT22;2256;48.740;9.106;2023-12-14T12:10:36;8.30;99.90
4487;DHT22;2256;48.740;9.106;2023-12-14T12:13:04;8.30;99.90
4487;DHT22;2256;48.740;9.106;2023-12-14T12:15:32;8.30;99.90
4487;DHT22;2256;48.740;9.106;2023-12-14T12:18:02;8.40;99.90
4487;DHT22;2256;48.740;9.106;2023-12-14T12:20:31;8.50;99.90
4487;DHT22;2256;48.740;9.106;2023-12-14T12:22:58;8.50;99.90
4487;DHT22;2256;48.740;9.106;2023-12-14T12:25:25;8.40;99.90
4487;DHT22;2256;48.740;9.106;2023-12-14T12:27:53;8.20;99.90
4487;DHT22;2256;48.740;9.106;2023-12-14T12:30:20;8.00;99.90
4487;DHT22;2256;48.740;9.106;2023-12-14T12:32:46;7.90;99.90
4487;DHT22;2256;48.740;9.106;2023-12-14T12:35:13;7.70;99.90
4487;DHT22;2256;48.740;9.106;2023-12-14T12:37:41;7.50;99.90
4487;DHT22;2256;48.740;9.106;2023-12-14T12:40:10;7.50;99.90
4487;DHT22;2256;48.740;9.106;2023-12-14T12:42:37;7.30;99.90
4487;DHT22;2256;48.740;9.106;2023-12-14T12:45:04;7.40;99.90
4487;DHT22;2256;48.740;9.106;2023-12-14T12:47:31;7.30;99.90
4487;DHT22;2256;48.740;9.106;2023-12-14T12:49:58;7.20;99.90
4487;DHT22;2256;48.740;9.106;2023-12-14T12:52:25;7.00;99.90
4487;DHT22;2256;48.740;9.106;2023-12-14T12:54:53;6.90;99.90
4487;DHT22;2256;48.740;9.106;2023-12-14T12:57:20;6.80;99.90
4487;DHT22;2256;48.740;9.106;2023-12-14T12:59:47;6.90;99.90
4487;DHT22;2256;48.740;9.106;2023-12-14T13:02:13;7.00;99.90
4487;DHT22;2256;48.740;9.106;2023-12-14T13:04:40;7.00;99.90
4487;DHT22;2256;48.740;9.106;2023-12-14T13:07:07;7.00;99.90
4487;DHT22;2256;48.740;9.106;2023-12-14T13:09:34;6.80;99.90
4487;DHT22;2256;48.740;9.106;2023-12-14T13:12:02;6.70;99.90
4487;DHT22;2256;48.740;9.106;2023-12-14T13:14:29;6.60;99.90
4487;DHT22;2256;48.740;9.106;2023-12-14T13:16:57;6.50;99.90
4487;DHT22;2256;48.740;9.106;2023-12-14T13:19:24;6.40;99.90
4487;DHT22;2256;48.740;9.106;2023-12-14T13:21:51;6.50;99.90
4487;DHT22;2256;48.740;9.106;2023-12-14T13:24:18;6.50;99.90
4487;DHT22;2256;48.740;9.106;2023-12-14T13:26:45;6.60;99.90
4487;DHT22;2256;48.740;9.106;2023-12-14T13:29:13;6.60;99.90
4487;DHT22;2256;48.740;9.106;2023-12-14T13:31:39;6.70;99.90
4487;DHT22;2256;48.740;9.106;2023-12-14T13:34:06;6.80;99.90
4487;DHT22;2256;48.740;9.106;2023-12-14T13:36:33;6.90;99.90
4487;DHT22;2256;48.740;9.106;2023-12-14T13:39:00;6.90;99.90
4487;DHT22;2256;48.740;9.106;2023-12-14T13:41:28;7.00;99.90
4487;DHT22;2256;48.740;9.106;2023-12-14T13:43:59;7.00;99.90
4487;DHT22;2256;48.740;9.106;2023-12-14T13:46:27;7.10;99.90
4487;DHT22;2256;48.740;9.106;2023-12-14T13:48:54;7.20;99.90
4487;DHT22;2256;48.740;9.106;2023-12-14T13:51:21;7.20;99.90
4487;DHT22;2256;48.740;9.106;2023-12-14T13:53:48;7.20;99.90
4487;DHT22;2256;48.740;9.106;2023-12-14T13:56:14;7.10;99.90
4487;DHT22;2256;48.740;9.106;2023-12-14T13:58:41;7.10;99.90
4487;DHT22;2256;48.740;9.106;2023-12-14T14:01:08;7.10;99.90
4487;DHT22;2256;48.740;9.106;2023-12-14T14:03:36;7.10;99.90
4487;DHT22;2256;48.740;9.106;2023-12-14T14:06:04;7.10;99.90
4487;DHT22;2256;48.740;9.106;2023-12-14T14:08:31;7.10;99.90
4487;DHT22;2256;48.740;9.106;2023-12-14T14:10:58;7.10;99.90
4487;DHT22;2256;48.740;9.106;2023-12-14T14:13:26;7.10;99.90
4487;DHT22;2256;48.740;9.106;2023-12-14T14:15:53;7.10;99.90
4487;DHT22;2256;48.740;9.106;2023-12-14T14:18:20;7.10;99.90
4487;DHT22;2256;48.740;9.106;2023-12-14T14:20:48;7.10;99.90
4487;DHT22;2256;48.740;9.106;2023-12-14T14:23:15;7.00;99.90
4487;DHT22;2256;48.740;9.106;2023-12-14T14:25:42;7.00;99.90
4487;DHT22;2256;48.740;9.106;2023-12-14T14:28:09;7.00;99.90
4487;DHT22;2256;48.740;9.106;2023-12-14T14:30:36;7.00;99.90
4487;DHT22;2256;48.740;9.106;2023-12-14T14:33:03;7.00;99.90
4487;DHT22;2256;48.740;9.106;2023-12-14T14:35:31;7.10;99.90
4487;DHT22;2256;48.740;9.106;2023-12-14T14:38:00;7.00;99.90
4487;DHT22;2256;48.740;9.106;2023-12-14T14:40:27;6.90;99.90
4487;DHT22;2256;48.740;9.106;2023-12-14T14:42:54;6.90;99.90
4487;DHT22;2256;48.740;9.106;2023-12-14T14:45:21;6.90;99.90
4487;DHT22;2256;48.740;9.106;2023-12-14T14:47:47;6.90;99.90
4487;DHT22;2256;48.740;9.106;2023-12-14T14:50:14;6.80;99.90
4487;DHT22;2256;48.740;9.106;2023-12-14T14:52:41;6.80;99.90
4487;DHT22;2256;48.740;9.106;2023-12-14T14:55:09;6.80;99.90
4487;DHT22;2256;48.740;9.106;2023-12-14T14:57:36;6.80;99.90
4487;DHT22;2256;48.740;9.106;2023-12-14T15:00:03;6.80;99.90
4487;DHT22;2256;48.740;9.106;2023-12-14T15:02:31;6.80;99.90
4487;DHT22;2256;48.740;9.106;2023-12-14T15:04:58;6.80;99.90
4487;DHT22;2256;48.740;9.106;2023-12-14T15:07:25;6.80;99.90
4487;DHT22;2256;48.740;9.106;2023-12-14T15:09:52;6.70;99.90
4487;DHT22;2256;48.740;9.106;2023-12-14T15:12:20;6.70;99.90
4487;DHT22;2256;48.740;9.106;2023-12-14T15:14:46;6.70;99.90
4487;DHT22;2256;48.740;9.106;2023-12-14T15:17:13;6.70;99.90
4487;DHT22;2256;48.740;9.106;2023-12-14T15:19:40;6.70;99.90
4487;DHT22;2256;48.740;9.106;2023-12-14T15:22:07;6.70;99.90
4487;DHT22;2256;48.740;9.106;2023-12-14T15:24:33;6.70;99.90
4487;DHT22;2256;48.740;9.106;2023-12-14T15:27:01;6.60;99.90
4487;DHT22;2256;48.740;9.106;2023-12-14T15:29:30;6.70;99.90
4487;DHT22;2256;48.740;9.106;2023-12-14T15:31:56;6.50;99.90
4487;DHT22;2256;48.740;9.106;2023-12-14T15:34:23;6.50;99.90
4487;DHT22;2256;48.740;9.106;2023-12-14T15:36:50;6.60;99.90
4487;DHT22;2256;48.740;9.106;2023-12-14T15:39:17;6.50;99.90
4487;DHT22;2256;48.740;9.106;2023-12-14T15:41:43;6.50;99.90
4487;DHT22;2256;48.740;9.106;2023-12-14T15:44:10;6.50;99.90
4487;DHT22;2256;48.740;9.106;2023-12-14T15:46:39;6.60;99.90
4487;DHT22;2256;48.740;9.106;2023-12-14T15:49:06;6.60;99.90
4487;DHT22;2256;48.740;9.106;2023-12-14T15:51:33;6.70;99.90
4487;DHT22;2256;48.740;9.106;2023-12-14T15:53:59;6.70;99.90
4487;DHT22;2256;48.740;9.106;2023-12-14T15:56:26;6.70;99.90
4487;DHT22;2256;48.740;9.106;2023-12-14T15:58:54;6.60;99.90
4487;DHT22;2256;48.740;9.106;2023-12-14T16:01:22;6.60;99.90
4487;DHT22;2256;48.740;9.106;2023-12-14T16:03:50;6.50;99.90
4487;DHT22;2256;48.740;9.106;2023-12-14T16:06:17;6.50;99.90
4487;DHT22;2256;48.740;9.106;2023-12-14T16:08:44;6.50;99.90
4487;DHT22;2256;48.740;9.106;2023-12-14T16:11:11;6.50;99.90
4487;DHT22;2256;48.740;9.106;2023-12-14T16:13:39;6.40;99.90
4487;DHT22;2256;48.740;9.106;2023-12-14T16:16:06;6.40;99.90
4487;DHT22;2256;48.740;9.106;2023-12-14T16:18:33;6.30;99.90